createdAt,value
2022-12-12T00:02:54.511Z,75.24
2022-12-12T00:08:00.264Z,74.82
2022-12-12T00:13:05.855Z,75.13
2022-12-12T00:18:11.247Z,74.94
2022-12-12T00:23:17.692Z,74.79
2022-12-12T00:28:23.618Z,75.32
2022-12-12T00:33:28.998Z,74.65
2022-12-12T00:38:34.777Z,75.24
2022-12-12T00:43:41.346Z,75.01
2022-12-12T00:48:47.131Z,75.46
2022-12-12T00:53:53.622Z,75.58
2022-12-12T00:58:59.378Z,75.95
2022-12-12T01:04:05.036Z,75.98
2022-12-12T01:09:10.486Z,76.41
2022-12-12T01:14:16.140Z,75.93
2022-12-12T01:19:21.550Z,75.82
2022-12-12T01:24:27.004Z,76.28
2022-12-12T01:29:33.931Z,76.56
2022-12-12T01:34:39.381Z,76.72
2022-12-12T01:39:44.828Z,76.55
2022-12-12T01:44:54.204Z,76.65
2022-12-12T01:50:02.612Z,76.82
2022-12-12T01:55:11.064Z,77.00
2022-12-12T02:00:17.907Z,77.06
2022-12-12T02:05:26.390Z,76.92
2022-12-12T02:10:31.836Z,77.02
2022-12-12T02:16:01.116Z,77.15
2022-12-12T02:21:38.472Z,77.00
2022-12-12T02:27:12.496Z,76.86
2022-12-12T02:32:45.123Z,76.78
2022-12-12T02:38:08.677Z,76.75
2022-12-12T02:43:28.878Z,76.96
2022-12-12T02:48:44.330Z,77.33
2022-12-12T02:53:49.817Z,77.29
2022-12-12T02:58:55.230Z,77.84
2022-12-12T03:04:24.487Z,77.08
2022-12-12T03:09:41.981Z,77.39
2022-12-12T03:15:06.017Z,77.34
2022-12-12T03:20:17.158Z,77.20
2022-12-12T03:25:34.707Z,76.91
2022-12-12T03:30:46.841Z,76.85
2022-12-12T03:36:11.415Z,77.03
2022-12-12T03:41:20.421Z,77.03
2022-12-12T03:46:31.775Z,77.15
2022-12-12T03:51:43.007Z,76.73
2022-12-12T03:57:08.072Z,77.56
2022-12-12T04:02:19.582Z,76.67
2022-12-12T04:07:28.076Z,77.27
2022-12-12T04:13:00.543Z,77.17
2022-12-12T04:18:27.656Z,77.20
2022-12-12T04:23:54.360Z,77.31
2022-12-12T04:29:08.924Z,77.12
2022-12-12T04:34:20.408Z,77.37
2022-12-12T04:39:27.122Z,77.37
2022-12-12T04:44:35.441Z,77.08
2022-12-12T04:49:43.903Z,77.45
2022-12-12T04:54:52.320Z,77.18
2022-12-12T04:59:58.337Z,77.06
2022-12-12T05:05:06.768Z,77.01
2022-12-12T05:10:15.049Z,77.12
2022-12-12T05:15:21.633Z,77.20
2022-12-12T05:20:27.144Z,76.95
2022-12-12T05:25:33.142Z,76.46
2022-12-12T05:30:38.823Z,76.66
2022-12-12T05:35:44.239Z,76.65
2022-12-12T05:40:50.781Z,75.82
2022-12-12T05:45:56.296Z,76.34
2022-12-12T05:51:04.840Z,75.95
2022-12-12T05:56:11.654Z,75.80
2022-12-12T06:01:17.176Z,75.83
2022-12-12T06:06:24.271Z,75.32
2022-12-12T06:11:29.814Z,74.94
2022-12-12T06:16:36.797Z,74.65
2022-12-12T06:21:42.411Z,74.44
2022-12-12T06:26:47.793Z,74.78
2022-12-12T06:31:53.387Z,74.61
2022-12-12T06:36:58.951Z,74.39
2022-12-12T06:42:04.845Z,74.39
2022-12-12T06:47:10.225Z,74.78
2022-12-12T06:52:15.588Z,75.05
2022-12-12T06:57:21.718Z,75.16
2022-12-12T07:02:29.920Z,74.36
2022-12-12T07:07:34.369Z,74.91
2022-12-12T07:12:39.824Z,75.23
2022-12-12T07:17:45.207Z,75.64
2022-12-12T07:22:51.230Z,75.22
2022-12-12T07:27:56.677Z,75.90
2022-12-12T07:33:02.126Z,75.57
2022-12-12T07:38:07.744Z,75.88
2022-12-12T07:43:13.117Z,75.71
2022-12-12T07:48:18.569Z,76.00
2022-12-12T07:53:23.960Z,76.02
2022-12-12T07:58:29.456Z,73.96
2022-12-12T08:03:34.841Z,75.16
2022-12-12T08:08:40.473Z,75.31
2022-12-12T08:13:46.523Z,75.88
2022-12-12T08:18:53.656Z,76.11
2022-12-12T08:24:03.496Z,76.03
2022-12-12T08:29:09.656Z,75.96
2022-12-12T08:34:15.095Z,75.88
2022-12-12T08:39:20.479Z,75.11
2022-12-12T08:44:25.847Z,75.36
2022-12-12T08:49:31.460Z,75.47
2022-12-12T08:54:37.705Z,75.54
2022-12-12T08:59:43.221Z,74.72
2022-12-12T09:04:48.603Z,74.01
2022-12-12T09:09:53.984Z,73.86
2022-12-12T09:14:59.365Z,74.29
2022-12-12T09:20:05.760Z,73.79
2022-12-12T09:25:13.329Z,73.99
2022-12-12T09:30:19.400Z,73.95
2022-12-12T09:35:24.781Z,74.33
2022-12-12T09:40:54.414Z,73.69
2022-12-12T09:46:01.186Z,73.24
2022-12-12T09:51:06.734Z,73.75
2022-12-12T09:56:26.968Z,72.90
2022-12-12T10:01:44.644Z,73.49
2022-12-12T10:06:55.799Z,73.08
2022-12-12T10:12:08.071Z,73.30
2022-12-12T10:17:17.699Z,73.03
2022-12-12T10:22:59.177Z,73.40
2022-12-12T10:28:19.911Z,72.32
2022-12-12T10:33:37.028Z,72.33
2022-12-12T10:38:45.454Z,71.91
2022-12-12T10:43:59.620Z,72.64
2022-12-12T10:49:08.123Z,71.48
2022-12-12T10:54:16.563Z,71.29
2022-12-12T10:59:25.006Z,71.53
2022-12-12T11:04:32.709Z,71.18
2022-12-12T11:09:40.968Z,70.95
2022-12-12T11:14:51.650Z,70.81
2022-12-12T11:19:59.933Z,70.98
2022-12-12T11:25:06.412Z,70.59
2022-12-12T11:30:29.512Z,70.50
2022-12-12T11:35:43.870Z,70.30
2022-12-12T11:40:46.669Z,70.54
2022-12-12T11:46:04.276Z,69.90
2022-12-12T11:51:10.966Z,70.47
2022-12-12T11:56:28.151Z,69.74
2022-12-12T12:01:48.680Z,69.58
2022-12-12T12:07:14.713Z,69.02
2022-12-12T12:12:25.829Z,68.82
2022-12-12T12:18:07.531Z,69.46
2022-12-12T12:23:39.150Z,69.34
2022-12-12T12:29:08.666Z,69.73
2022-12-12T12:34:29.109Z,69.96
2022-12-12T12:39:37.533Z,69.60
2022-12-12T12:44:58.172Z,69.63
2022-12-12T12:50:21.483Z,70.12
2022-12-12T12:55:29.927Z,69.70
2022-12-12T13:00:37.336Z,69.80
2022-12-12T13:05:49.935Z,69.65
2022-12-12T13:10:58.359Z,69.86
2022-12-12T13:16:19.202Z,69.27
2022-12-12T13:21:36.372Z,69.64
2022-12-12T13:26:44.813Z,69.50
2022-12-12T13:32:19.239Z,69.74
2022-12-12T13:37:25.261Z,70.71
2022-12-12T13:42:50.173Z,69.88
2022-12-12T13:47:58.597Z,70.11
2022-12-12T13:53:13.184Z,70.11
2022-12-12T13:58:24.210Z,69.74
2022-12-12T14:03:31.770Z,69.74
2022-12-12T14:08:39.868Z,70.26
2022-12-12T14:13:47.558Z,70.21
2022-12-12T14:19:02.127Z,69.90
2022-12-12T14:24:30.121Z,69.75
2022-12-12T14:29:38.545Z,70.20
2022-12-12T14:34:47.439Z,70.14
2022-12-12T14:39:55.865Z,70.47
2022-12-12T14:45:01.247Z,70.49
2022-12-12T14:50:15.045Z,70.65
2022-12-12T14:55:20.933Z,70.94
2022-12-12T15:00:28.150Z,70.79
2022-12-12T15:05:33.535Z,70.81
2022-12-12T15:10:40.723Z,70.86
2022-12-12T15:15:46.204Z,70.83
2022-12-12T15:20:53.201Z,70.82
2022-12-12T15:25:58.731Z,70.59
2022-12-12T15:31:04.278Z,70.51
2022-12-12T15:36:27.842Z,71.08
2022-12-12T15:41:34.118Z,70.84
2022-12-12T15:46:39.772Z,71.14
2022-12-12T15:51:45.268Z,71.25
2022-12-12T15:56:51.875Z,71.36
2022-12-12T16:01:57.559Z,71.39
2022-12-12T16:07:06.025Z,71.56
2022-12-12T16:12:11.473Z,72.02
2022-12-12T16:17:28.352Z,71.61
2022-12-12T16:22:41.037Z,71.60
2022-12-12T16:27:49.338Z,71.78
2022-12-12T16:32:55.432Z,72.62
2022-12-12T16:38:00.943Z,72.28
2022-12-12T16:43:11.150Z,72.88
2022-12-12T16:48:16.624Z,72.95
2022-12-12T16:53:22.178Z,72.85
2022-12-12T16:58:27.642Z,71.46
2022-12-12T17:03:33.771Z,72.66
2022-12-12T17:08:39.369Z,73.29
2022-12-12T17:13:51.181Z,73.35
2022-12-12T17:18:56.568Z,73.45
2022-12-12T17:24:02.359Z,73.41
2022-12-12T17:29:09.083Z,73.57
2022-12-12T17:34:14.641Z,73.99
2022-12-12T17:39:20.124Z,73.89
2022-12-12T17:44:25.844Z,73.43
2022-12-12T17:49:31.414Z,73.18
2022-12-12T17:54:38.569Z,73.43
2022-12-12T17:59:44.231Z,73.45
2022-12-12T18:04:50.609Z,73.87
2022-12-12T18:09:56.107Z,73.85
2022-12-12T18:15:01.997Z,73.50
2022-12-12T18:20:08.351Z,73.50
2022-12-12T18:25:13.798Z,73.59
2022-12-12T18:30:19.393Z,74.18
2022-12-12T18:35:25.053Z,73.82
2022-12-12T18:40:30.519Z,73.75
2022-12-12T18:45:39.432Z,73.54
2022-12-12T18:50:44.845Z,73.64
2022-12-12T18:55:50.297Z,73.64
2022-12-12T19:00:55.778Z,73.68
2022-12-12T19:06:02.764Z,73.41
2022-12-12T19:11:09.737Z,73.09
2022-12-12T19:16:18.018Z,72.70
2022-12-12T19:21:27.583Z,72.58
2022-12-12T19:26:32.963Z,72.64
2022-12-12T19:31:38.759Z,72.18
2022-12-12T19:36:44.490Z,72.42
2022-12-12T19:41:49.954Z,72.16
2022-12-12T19:46:55.530Z,71.99
2022-12-12T19:52:02.199Z,72.37
2022-12-12T19:57:14.364Z,72.23
2022-12-12T20:02:20.026Z,72.35
2022-12-12T20:07:25.533Z,72.38
2022-12-12T20:12:32.051Z,72.23
2022-12-12T20:17:37.464Z,72.09
2022-12-12T20:22:42.866Z,72.16
2022-12-12T20:27:48.251Z,72.19
2022-12-12T20:32:53.848Z,72.27
